sensor_id;sensor_type;location;lat;lon;timestamp;temperature;humidity
18408;DHT22;9330;52.210;21.174;2023-07-09T00:00:14;16.50;99.90
18408;DHT22;9330;52.210;21.174;2023-07-09T00:02:41;16.50;99.90
18408;DHT22;9330;52.210;21.174;2023-07-09T00:05:12;16.50;99.90
18408;DHT22;9330;52.210;21.174;2023-07-09T00:07:42;16.60;99.90
18408;DHT22;9330;52.210;21.174;2023-07-09T00:10:15;16.50;99.90
18408;DHT22;9330;52.210;21.174;2023-07-09T00:12:42;16.60;99.90
18408;DHT22;9330;52.210;21.174;2023-07-09T00:15:11;16.60;99.90
18408;DHT22;9330;52.210;21.174;2023-07-09T00:17:38;16.50;99.90
18408;DHT22;9330;52.210;21.174;2023-07-09T00:20:10;16.50;99.90
18408;DHT22;9330;52.210;21.174;2023-07-09T00:22:41;16.50;99.90
18408;DHT22;9330;52.210;21.174;2023-07-09T00:25:18;16.60;99.90
18408;DHT22;9330;52.210;21.174;2023-07-09T00:27:45;16.40;99.90
18408;DHT22;9330;52.210;21.174;2023-07-09T00:30:16;16.50;99.90
18408;DHT22;9330;52.210;21.174;2023-07-09T00:32:44;16.50;99.90
18408;DHT22;9330;52.210;21.174;2023-07-09T00:35:11;16.50;99.90
18408;DHT22;9330;52.210;21.174;2023-07-09T00:37:42;16.40;99.90
18408;DHT22;9330;52.210;21.174;2023-07-09T00:40:17;16.50;99.90
18408;DHT22;9330;52.210;21.174;2023-07-09T00:42:46;16.40;99.90
18408;DHT22;9330;52.210;21.174;2023-07-09T00:45:19;16.40;99.90
18408;DHT22;9330;52.210;21.174;2023-07-09T00:47:50;16.40;99.90
18408;DHT22;9330;52.210;21.174;2023-07-09T00:50:32;16.40;99.90
18408;DHT22;9330;52.210;21.174;2023-07-09T00:53:04;16.30;99.90
18408;DHT22;9330;52.210;21.174;2023-07-09T00:55:39;16.30;99.90
18408;DHT22;9330;52.210;21.174;2023-07-09T00:58:12;16.30;99.90
18408;DHT22;9330;52.210;21.174;2023-07-09T01:00:44;16.20;99.90
18408;DHT22;9330;52.210;21.174;2023-07-09T01:03:20;16.20;99.90
18408;DHT22;9330;52.210;21.174;2023-07-09T01:05:49;16.20;99.90
18408;DHT22;9330;52.210;21.174;2023-07-09T01:08:19;16.10;99.90
18408;DHT22;9330;52.210;21.174;2023-07-09T01:10:47;16.10;99.90
18408;DHT22;9330;52.210;21.174;2023-07-09T01:13:15;16.00;99.90
18408;DHT22;9330;52.210;21.174;2023-07-09T01:15:43;16.00;99.90
18408;DHT22;9330;52.210;21.174;2023-07-09T01:18:12;16.00;99.90
18408;DHT22;9330;52.210;21.174;2023-07-09T01:20:40;16.00;99.90
18408;DHT22;9330;52.210;21.174;2023-07-09T01:23:09;16.10;99.90
18408;DHT22;9330;52.210;21.174;2023-07-09T01:25:43;15.90;99.90
18408;DHT22;9330;52.210;21.174;2023-07-09T01:28:10;15.90;99.90
18408;DHT22;9330;52.210;21.174;2023-07-09T01:30:39;15.90;99.90
18408;DHT22;9330;52.210;21.174;2023-07-09T01:33:07;15.70;99.90
18408;DHT22;9330;52.210;21.174;2023-07-09T01:35:37;15.80;99.90
18408;DHT22;9330;52.210;21.174;2023-07-09T01:38:08;15.60;99.90
18408;DHT22;9330;52.210;21.174;2023-07-09T01:40:37;15.80;99.90
18408;DHT22;9330;52.210;21.174;2023-07-09T01:43:04;15.80;99.90
18408;DHT22;9330;52.210;21.174;2023-07-09T01:45:34;15.70;99.90
18408;DHT22;9330;52.210;21.174;2023-07-09T01:48:02;15.70;99.90
18408;DHT22;9330;52.210;21.174;2023-07-09T01:50:29;15.70;99.90
18408;DHT22;9330;52.210;21.174;2023-07-09T01:52:56;15.70;99.90
18408;DHT22;9330;52.210;21.174;2023-07-09T01:55:24;15.60;99.90
18408;DHT22;9330;52.210;21.174;2023-07-09T01:57:52;15.70;99.90
18408;DHT22;9330;52.210;21.174;2023-07-09T02:00:19;15.60;99.90
18408;DHT22;9330;52.210;21.174;2023-07-09T02:02:47;15.60;99.90
18408;DHT22;9330;52.210;21.174;2023-07-09T02:05:16;15.50;99.90
18408;DHT22;9330;52.210;21.174;2023-07-09T02:07:43;15.50;99.90
18408;DHT22;9330;52.210;21.174;2023-07-09T02:10:11;15.50;99.90
18408;DHT22;9330;52.210;21.174;2023-07-09T02:12:38;15.50;99.90
18408;DHT22;9330;52.210;21.174;2023-07-09T02:15:08;15.50;99.90
18408;DHT22;9330;52.210;21.174;2023-07-09T02:17:35;15.40;99.90
18408;DHT22;9330;52.210;21.174;2023-07-09T02:20:03;15.50;99.90
18408;DHT22;9330;52.210;21.174;2023-07-09T02:22:32;15.40;99.90
18408;DHT22;9330;52.210;21.174;2023-07-09T02:24:59;15.40;99.90
18408;DHT22;9330;52.210;21.174;2023-07-09T02:27:26;15.40;99.90
18408;DHT22;9330;52.210;21.174;2023-07-09T02:29:53;15.40;99.90
18408;DHT22;9330;52.210;21.174;2023-07-09T02:32:25;15.30;99.90
18408;DHT22;9330;52.210;21.174;2023-07-09T02:34:53;15.40;99.90
18408;DHT22;9330;52.210;21.174;2023-07-09T02:37:22;15.40;99.90
18408;DHT22;9330;52.210;21.174;2023-07-09T02:39:50;15.40;99.90
18408;DHT22;9330;52.210;21.174;2023-07-09T02:42:19;15.30;99.90
18408;DHT22;9330;52.210;21.174;2023-07-09T02:44:46;15.30;99.90
18408;DHT22;9330;52.210;21.174;2023-07-09T02:47:14;15.30;99.90
18408;DHT22;9330;52.210;21.174;2023-07-09T02:49:42;15.30;99.90
18408;DHT22;9330;52.210;21.174;2023-07-09T02:52:09;15.30;99.90
18408;DHT22;9330;52.210;21.174;2023-07-09T02:54:36;15.20;99.90
18408;DHT22;9330;52.210;21.174;2023-07-09T02:57:04;15.20;99.90
18408;DHT22;9330;52.210;21.174;2023-07-09T02:59:31;15.20;99.90
18408;DHT22;9330;52.210;21.174;2023-07-09T03:01:59;15.20;99.90
18408;DHT22;9330;52.210;21.174;2023-07-09T03:04:26;15.20;99.90
18408;DHT22;9330;52.210;21.174;2023-07-09T03:06:55;15.20;99.90
18408;DHT22;9330;52.210;21.174;2023-07-09T03:09:22;15.20;99.90
18408;DHT22;9330;52.210;21.174;2023-07-09T03:11:49;15.20;99.90
18408;DHT22;9330;52.210;21.174;2023-07-09T03:14:16;15.20;99.90
18408;DHT22;9330;52.210;21.174;2023-07-09T03:16:44;15.20;99.90
18408;DHT22;9330;52.210;21.174;2023-07-09T03:19:10;15.20;99.90
18408;DHT22;9330;52.210;21.174;2023-07-09T03:21:37;15.20;99.90
18408;DHT22;9330;52.210;21.174;2023-07-09T03:24:06;15.20;99.90
18408;DHT22;9330;52.210;21.174;2023-07-09T03:26:34;15.20;99.90
18408;DHT22;9330;52.210;21.174;2023-07-09T03:29:01;15.40;99.90
18408;DHT22;9330;52.210;21.174;2023-07-09T03:31:27;15.30;99.90
18408;DHT22;9330;52.210;21.174;2023-07-09T03:33:54;15.30;99.90
18408;DHT22;9330;52.210;21.174;2023-07-09T03:36:21;15.20;99.90
18408;DHT22;9330;52.210;21.174;2023-07-09T03:38:48;15.30;99.90
18408;DHT22;9330;52.210;21.174;2023-07-09T03:41:18;15.40;99.90
18408;DHT22;9330;52.210;21.174;2023-07-09T03:43:45;15.40;99.90
18408;DHT22;9330;52.210;21.174;2023-07-09T03:46:12;15.40;99.90
18408;DHT22;9330;52.210;21.174;2023-07-09T03:48:39;15.50;99.90
18408;DHT22;9330;52.210;21.174;2023-07-09T03:51:06;15.60;99.90
18408;DHT22;9330;52.210;21.174;2023-07-09T03:53:33;15.60;99.90
18408;DHT22;9330;52.210;21.174;2023-07-09T03:56:00;15.60;99.90
18408;DHT22;9330;52.210;21.174;2023-07-09T03:58:28;15.60;99.90
18408;DHT22;9330;52.210;21.174;2023-07-09T04:00:55;15.70;99.90
18408;DHT22;9330;52.210;21.174;2023-07-09T04:03:22;15.90;99.90
18408;DHT22;9330;52.210;21.174;2023-07-09T04:05:49;15.90;99.90
18408;DHT22;9330;52.210;21.174;2023-07-09T04:08:17;16.00;99.90
18408;DHT22;9330;52.210;21.174;2023-07-09T04:10:44;16.20;99.90
18408;DHT22;9330;52.210;21.174;2023-07-09T04:13:11;16.20;99.90
18408;DHT22;9330;52.210;21.174;2023-07-09T04:15:39;16.30;99.90
18408;DHT22;9330;52.210;21.174;2023-07-09T04:18:06;16.40;99.90
18408;DHT22;9330;52.210;21.174;2023-07-09T04:20:33;16.50;99.90
18408;DHT22;9330;52.210;21.174;2023-07-09T04:23:01;16.60;99.90
18408;DHT22;9330;52.210;21.174;2023-07-09T04:25:28;16.60;99.90
18408;DHT22;9330;52.210;21.174;2023-07-09T04:27:55;16.80;99.90
18408;DHT22;9330;52.210;21.174;2023-07-09T04:30:23;16.90;99.90
18408;DHT22;9330;52.210;21.174;2023-07-09T04:32:51;17.00;99.90
18408;DHT22;9330;52.210;21.174;2023-07-09T04:35:18;17.10;99.90
18408;DHT22;9330;52.210;21.174;2023-07-09T04:37:45;17.30;99.90
18408;DHT22;9330;52.210;21.174;2023-07-09T04:40:13;17.40;99.90
18408;DHT22;9330;52.210;21.174;2023-07-09T04:42:41;17.50;99.90
18408;DHT22;9330;52.210;21.174;2023-07-09T04:45:09;17.60;99.90
18408;DHT22;9330;52.210;21.174;2023-07-09T04:47:37;17.70;99.90
18408;DHT22;9330;52.210;21.174;2023-07-09T04:50:07;17.90;99.90
18408;DHT22;9330;52.210;21.174;2023-07-09T04:52:34;17.90;99.90
18408;DHT22;9330;52.210;21.174;2023-07-09T04:55:01;18.10;99.90
18408;DHT22;9330;52.210;21.174;2023-07-09T04:57:28;18.10;99.90
18408;DHT22;9330;52.210;21.174;2023-07-09T04:59:55;18.30;99.90
18408;DHT22;9330;52.210;21.174;2023-07-09T05:02:22;18.40;99.90
18408;DHT22;9330;52.210;21.174;2023-07-09T05:04:49;18.50;99.90
18408;DHT22;9330;52.210;21.174;2023-07-09T05:07:18;18.60;99.90
18408;DHT22;9330;52.210;21.174;2023-07-09T05:09:45;18.70;99.90
18408;DHT22;9330;52.210;21.174;2023-07-09T05:12:13;18.80;99.90
18408;DHT22;9330;52.210;21.174;2023-07-09T05:14:40;18.90;99.90
18408;DHT22;9330;52.210;21.174;2023-07-09T05:17:07;19.00;99.90
18408;DHT22;9330;52.210;21.174;2023-07-09T05:19:35;19.20;99.90
18408;DHT22;9330;52.210;21.174;2023-07-09T05:22:03;19.30;99.90
18408;DHT22;9330;52.210;21.174;2023-07-09T05:24:31;19.40;99.90
18408;DHT22;9330;52.210;21.174;2023-07-09T05:26:58;19.50;99.90
18408;DHT22;9330;52.210;21.174;2023-07-09T05:29:25;19.70;99.90
18408;DHT22;9330;52.210;21.174;2023-07-09T05:31:53;19.80;99.90
18408;DHT22;9330;52.210;21.174;2023-07-09T05:34:20;19.80;99.90
18408;DHT22;9330;52.210;21.174;2023-07-09T05:36:47;19.90;99.90
18408;DHT22;9330;52.210;21.174;2023-07-09T05:39:14;20.00;99.90
18408;DHT22;9330;52.210;21.174;2023-07-09T05:41:43;20.10;99.90
18408;DHT22;9330;52.210;21.174;2023-07-09T05:44:10;20.40;99.90
18408;DHT22;9330;52.210;21.174;2023-07-09T05:46:37;20.30;99.90
18408;DHT22;9330;52.210;21.174;2023-07-09T05:49:05;20.40;99.90
18408;DHT22;9330;52.210;21.174;2023-07-09T05:51:32;20.50;99.90
18408;DHT22;9330;52.210;21.174;2023-07-09T05:53:59;20.60;99.90
18408;DHT22;9330;52.210;21.174;2023-07-09T05:56:26;20.70;99.90
18408;DHT22;9330;52.210;21.174;2023-07-09T05:58:55;20.90;99.90
18408;DHT22;9330;52.210;21.174;2023-07-09T06:01:22;21.00;99.90
18408;DHT22;9330;52.210;21.174;2023-07-09T06:03:49;21.10;99.90
18408;DHT22;9330;52.210;21.174;2023-07-09T06:06:16;21.10;99.90
18408;DHT22;9330;52.210;21.174;2023-07-09T06:08:43;21.10;99.90
18408;DHT22;9330;52.210;21.174;2023-07-09T06:11:10;21.30;99.90
18408;DHT22;9330;52.210;21.174;2023-07-09T06:13:37;21.50;99.90
18408;DHT22;9330;52.210;21.174;2023-07-09T06:16:06;21.40;99.90
18408;DHT22;9330;52.210;21.174;2023-07-09T06:18:33;21.40;99.90
18408;DHT22;9330;52.210;21.174;2023-07-09T06:21:01;21.40;99.90
18408;DHT22;9330;52.210;21.174;2023-07-09T06:23:29;21.50;99.90
18408;DHT22;9330;52.210;21.174;2023-07-09T06:25:57;21.50;99.90
18408;DHT22;9330;52.210;21.174;2023-07-09T06:28:25;21.80;99.90
18408;DHT22;9330;52.210;21.174;2023-07-09T06:30:54;21.80;99.90
18408;DHT22;9330;52.210;21.174;2023-07-09T06:33:23;22.10;99.90
18408;DHT22;9330;52.210;21.174;2023-07-09T06:35:52;22.10;99.90
18408;DHT22;9330;52.210;21.174;2023-07-09T06:38:19;22.30;99.90
18408;DHT22;9330;52.210;21.174;2023-07-09T06:40:46;22.50;99.90
18408;DHT22;9330;52.210;21.174;2023-07-09T06:43:14;22.70;99.90
18408;DHT22;9330;52.210;21.174;2023-07-09T06:45:48;22.80;99.90
18408;DHT22;9330;52.210;21.174;2023-07-09T06:48:15;22.90;99.60
18408;DHT22;9330;52.210;21.174;2023-07-09T06:50:43;23.00;99.90
18408;DHT22;9330;52.210;21.174;2023-07-09T06:53:10;23.20;97.20
18408;DHT22;9330;52.210;21.174;2023-07-09T06:55:37;23.30;98.70
18408;DHT22;9330;52.210;21.174;2023-07-09T06:58:05;23.40;99.80
18408;DHT22;9330;52.210;21.174;2023-07-09T07:00:33;23.50;97.90
18408;DHT22;9330;52.210;21.174;2023-07-09T07:03:00;23.40;94.90
18408;DHT22;9330;52.210;21.174;2023-07-09T07:05:27;23.50;96.40
18408;DHT22;9330;52.210;21.174;2023-07-09T07:07:56;23.60;98.20
18408;DHT22;9330;52.210;21.174;2023-07-09T07:10:23;23.60;92.70
18408;DHT22;9330;52.210;21.174;2023-07-09T07:12:52;23.40;93.80
18408;DHT22;9330;52.210;21.174;2023-07-09T07:15:19;23.50;93.20
18408;DHT22;9330;52.210;21.174;2023-07-09T07:17:46;23.80;95.30
18408;DHT22;9330;52.210;21.174;2023-07-09T07:20:14;23.90;94.30
18408;DHT22;9330;52.210;21.174;2023-07-09T07:22:42;24.10;96.80
18408;DHT22;9330;52.210;21.174;2023-07-09T07:25:11;24.10;95.50
18408;DHT22;9330;52.210;21.174;2023-07-09T07:27:40;24.10;87.20
18408;DHT22;9330;52.210;21.174;2023-07-09T07:30:09;24.10;86.60
18408;DHT22;9330;52.210;21.174;2023-07-09T07:32:38;24.10;85.40
18408;DHT22;9330;52.210;21.174;2023-07-09T07:35:06;24.00;80.60
18408;DHT22;9330;52.210;21.174;2023-07-09T07:37:33;23.90;81.90
18408;DHT22;9330;52.210;21.174;2023-07-09T07:39:59;23.80;85.60
18408;DHT22;9330;52.210;21.174;2023-07-09T07:42:32;24.10;90.40
18408;DHT22;9330;52.210;21.174;2023-07-09T07:45:00;24.40;91.40
18408;DHT22;9330;52.210;21.174;2023-07-09T07:47:29;24.50;89.80
18408;DHT22;9330;52.210;21.174;2023-07-09T07:49:59;24.70;82.60
18408;DHT22;9330;52.210;21.174;2023-07-09T07:52:33;24.50;78.80
18408;DHT22;9330;52.210;21.174;2023-07-09T07:55:04;24.50;81.50
18408;DHT22;9330;52.210;21.174;2023-07-09T07:57:35;24.40;75.00
18408;DHT22;9330;52.210;21.174;2023-07-09T08:00:03;24.50;89.80
18408;DHT22;9330;52.210;21.174;2023-07-09T08:02:32;24.70;83.60
18408;DHT22;9330;52.210;21.174;2023-07-09T08:05:01;25.00;77.00
18408;DHT22;9330;52.210;21.174;2023-07-09T08:07:29;25.10;73.40
18408;DHT22;9330;52.210;21.174;2023-07-09T08:10:18;25.20;78.10
18408;DHT22;9330;52.210;21.174;2023-07-09T08:12:47;25.20;67.90
18408;DHT22;9330;52.210;21.174;2023-07-09T08:15:14;25.20;77.70
18408;DHT22;9330;52.210;21.174;2023-07-09T08:17:43;25.60;77.70
18408;DHT22;9330;52.210;21.174;2023-07-09T08:20:15;25.50;63.70
18408;DHT22;9330;52.210;21.174;2023-07-09T08:22:42;25.50;67.50
18408;DHT22;9330;52.210;21.174;2023-07-09T08:25:10;25.50;62.40
18408;DHT22;9330;52.210;21.174;2023-07-09T08:27:36;25.60;67.10
18408;DHT22;9330;52.210;21.174;2023-07-09T08:30:06;25.80;66.30
18408;DHT22;9330;52.210;21.174;2023-07-09T08:32:33;26.00;63.10
18408;DHT22;9330;52.210;21.174;2023-07-09T08:35:01;26.00;62.70
18408;DHT22;9330;52.210;21.174;2023-07-09T08:37:28;25.70;58.40
18408;DHT22;9330;52.210;21.174;2023-07-09T08:39:56;25.80;61.50
18408;DHT22;9330;52.210;21.174;2023-07-09T08:42:28;26.00;58.30
18408;DHT22;9330;52.210;21.174;2023-07-09T08:45:10;26.00;57.40
18408;DHT22;9330;52.210;21.174;2023-07-09T08:47:47;26.20;52.60
18408;DHT22;9330;52.210;21.174;2023-07-09T08:50:21;26.10;55.70
18408;DHT22;9330;52.210;21.174;2023-07-09T08:52:49;26.20;57.20
18408;DHT22;9330;52.210;21.174;2023-07-09T08:55:19;26.30;51.40
18408;DHT22;9330;52.210;21.174;2023-07-09T08:57:48;26.20;54.00
18408;DHT22;9330;52.210;21.174;2023-07-09T09:00:22;26.20;49.00
18408;DHT22;9330;52.210;21.174;2023-07-09T09:02:52;26.20;53.90
18408;DHT22;9330;52.210;21.174;2023-07-09T09:05:22;26.40;51.10
18408;DHT22;9330;52.210;21.174;2023-07-09T09:07:55;26.30;49.20
18408;DHT22;9330;52.210;21.174;2023-07-09T09:10:29;26.10;51.20
18408;DHT22;9330;52.210;21.174;2023-07-09T09:13:03;26.40;53.90
18408;DHT22;9330;52.210;21.174;2023-07-09T09:15:34;26.60;51.20
18408;DHT22;9330;52.210;21.174;2023-07-09T09:18:18;26.60;50.80
18408;DHT22;9330;52.210;21.174;2023-07-09T09:20:49;26.80;52.10
18408;DHT22;9330;52.210;21.174;2023-07-09T09:23:19;26.70;48.10
18408;DHT22;9330;52.210;21.174;2023-07-09T09:25:50;26.60;44.80
18408;DHT22;9330;52.210;21.174;2023-07-09T09:28:18;26.40;44.90
18408;DHT22;9330;52.210;21.174;2023-07-09T09:30:47;26.40;49.00
18408;DHT22;9330;52.210;21.174;2023-07-09T09:33:17;26.40;47.80
18408;DHT22;9330;52.210;21.174;2023-07-09T09:35:45;26.70;48.90
18408;DHT22;9330;52.210;21.174;2023-07-09T09:38:17;26.70;48.20
18408;DHT22;9330;52.210;21.174;2023-07-09T09:40:44;26.70;45.00
18408;DHT22;9330;52.210;21.174;2023-07-09T09:43:13;26.80;47.50
18408;DHT22;9330;52.210;21.174;2023-07-09T09:45:42;26.90;45.10
18408;DHT22;9330;52.210;21.174;2023-07-09T09:48:29;27.00;44.50
18408;DHT22;9330;52.210;21.174;2023-07-09T09:50:57;26.90;42.40
18408;DHT22;9330;52.210;21.174;2023-07-09T09:53:28;27.00;44.90
18408;DHT22;9330;52.210;21.174;2023-07-09T09:55:56;26.90;42.40
18408;DHT22;9330;52.210;21.174;2023-07-09T09:58:27;26.90;43.70
18408;DHT22;9330;52.210;21.174;2023-07-09T10:00:56;26.90;41.50
18408;DHT22;9330;52.210;21.174;2023-07-09T10:03:34;26.80;41.10
18408;DHT22;9330;52.210;21.174;2023-07-09T10:06:07;26.90;42.20
18408;DHT22;9330;52.210;21.174;2023-07-09T10:08:45;27.20;45.20
18408;DHT22;9330;52.210;21.174;2023-07-09T10:11:19;27.30;44.40
18408;DHT22;9330;52.210;21.174;2023-07-09T10:13:48;27.40;42.20
18408;DHT22;9330;52.210;21.174;2023-07-09T10:16:19;27.30;42.30
18408;DHT22;9330;52.210;21.174;2023-07-09T10:18:54;27.30;41.50
18408;DHT22;9330;52.210;21.174;2023-07-09T10:21:28;27.20;44.00
18408;DHT22;9330;52.210;21.174;2023-07-09T10:24:09;27.30;43.40
18408;DHT22;9330;52.210;21.174;2023-07-09T10:26:43;27.40;44.20
18408;DHT22;9330;52.210;21.174;2023-07-09T10:29:29;27.40;44.40
18408;DHT22;9330;52.210;21.174;2023-07-09T10:32:27;27.40;42.80
18408;DHT22;9330;52.210;21.174;2023-07-09T10:35:02;27.20;43.00
18408;DHT22;9330;52.210;21.174;2023-07-09T10:37:48;27.20;40.60
18408;DHT22;9330;52.210;21.174;2023-07-09T10:40:23;27.20;42.40
18408;DHT22;9330;52.210;21.174;2023-07-09T10:42:55;27.00;40.50
18408;DHT22;9330;52.210;21.174;2023-07-09T10:45:29;26.80;39.70
18408;DHT22;9330;52.210;21.174;2023-07-09T10:47:59;26.80;41.10
18408;DHT22;9330;52.210;21.174;2023-07-09T10:50:32;26.80;40.80
18408;DHT22;9330;52.210;21.174;2023-07-09T10:53:05;26.80;40.40
18408;DHT22;9330;52.210;21.174;2023-07-09T10:55:41;26.80;43.40
18408;DHT22;9330;52.210;21.174;2023-07-09T10:58:21;26.80;40.70
18408;DHT22;9330;52.210;21.174;2023-07-09T11:00:49;26.90;43.80
18408;DHT22;9330;52.210;21.174;2023-07-09T11:03:19;26.90;41.30
18408;DHT22;9330;52.210;21.174;2023-07-09T11:05:48;27.00;44.50
18408;DHT22;9330;52.210;21.174;2023-07-09T11:08:18;27.20;41.10
18408;DHT22;9330;52.210;21.174;2023-07-09T11:10:49;27.10;38.80
18408;DHT22;9330;52.210;21.174;2023-07-09T11:13:23;27.10;39.60
18408;DHT22;9330;52.210;21.174;2023-07-09T11:15:54;27.30;40.80
18408;DHT22;9330;52.210;21.174;2023-07-09T11:18:24;27.50;40.50
18408;DHT22;9330;52.210;21.174;2023-07-09T11:21:00;27.50;38.90
18408;DHT22;9330;52.210;21.174;2023-07-09T11:23:38;27.50;38.90
18408;DHT22;9330;52.210;21.174;2023-07-09T11:26:12;27.70;36.40
18408;DHT22;9330;52.210;21.174;2023-07-09T11:28:47;27.70;34.40
18408;DHT22;9330;52.210;21.174;2023-07-09T11:31:22;28.00;36.10
18408;DHT22;9330;52.210;21.174;2023-07-09T11:34:00;28.30;37.30
18408;DHT22;9330;52.210;21.174;2023-07-09T11:36:30;28.50;35.70
18408;DHT22;9330;52.210;21.174;2023-07-09T11:38:57;28.60;35.40
18408;DHT22;9330;52.210;21.174;2023-07-09T11:41:33;28.90;36.90
18408;DHT22;9330;52.210;21.174;2023-07-09T11:44:05;29.10;34.50
18408;DHT22;9330;52.210;21.174;2023-07-09T11:46:42;29.40;37.20
18408;DHT22;9330;52.210;21.174;2023-07-09T11:49:11;29.60;37.30
18408;DHT22;9330;52.210;21.174;2023-07-09T11:51:44;29.50;33.60
18408;DHT22;9330;52.210;21.174;2023-07-09T11:54:13;29.60;35.70
18408;DHT22;9330;52.210;21.174;2023-07-09T11:56:39;29.50;31.20
18408;DHT22;9330;52.210;21.174;2023-07-09T11:59:08;29.70;30.90
18408;DHT22;9330;52.210;21.174;2023-07-09T12:01:42;29.50;32.00
18408;DHT22;9330;52.210;21.174;2023-07-09T12:04:12;29.60;31.50
18408;DHT22;9330;52.210;21.174;2023-07-09T12:06:41;29.50;33.20
18408;DHT22;9330;52.210;21.174;2023-07-09T12:09:13;29.60;33.40
18408;DHT22;9330;52.210;21.174;2023-07-09T12:11:43;29.90;32.00
18408;DHT22;9330;52.210;21.174;2023-07-09T12:14:13;30.10;34.70
18408;DHT22;9330;52.210;21.174;2023-07-09T12:16:42;30.10;31.90
18408;DHT22;9330;52.210;21.174;2023-07-09T12:19:12;30.20;32.50
18408;DHT22;9330;52.210;21.174;2023-07-09T12:21:42;30.20;34.30
18408;DHT22;9330;52.210;21.174;2023-07-09T12:24:18;30.00;31.30
18408;DHT22;9330;52.210;21.174;2023-07-09T12:26:49;30.00;31.90
18408;DHT22;9330;52.210;21.174;2023-07-09T12:29:18;30.10;33.20
18408;DHT22;9330;52.210;21.174;2023-07-09T12:31:45;30.00;31.90
18408;DHT22;9330;52.210;21.174;2023-07-09T12:34:13;30.00;32.70
18408;DHT22;9330;52.210;21.174;2023-07-09T12:36:46;30.00;32.20
18408;DHT22;9330;52.210;21.174;2023-07-09T12:39:16;29.80;30.30
18408;DHT22;9330;52.210;21.174;2023-07-09T12:41:44;30.10;33.10
18408;DHT22;9330;52.210;21.174;2023-07-09T12:44:16;30.20;31.60
18408;DHT22;9330;52.210;21.174;2023-07-09T12:46:44;30.50;33.00
18408;DHT22;9330;52.210;21.174;2023-07-09T12:49:21;30.60;30.80
18408;DHT22;9330;52.210;21.174;2023-07-09T12:51:50;30.70;31.50
18408;DHT22;9330;52.210;21.174;2023-07-09T12:54:19;30.60;32.10
18408;DHT22;9330;52.210;21.174;2023-07-09T12:56:50;30.80;32.30
18408;DHT22;9330;52.210;21.174;2023-07-09T12:59:19;30.50;30.60
18408;DHT22;9330;52.210;21.174;2023-07-09T13:01:51;30.60;31.70
18408;DHT22;9330;52.210;21.174;2023-07-09T13:04:21;30.60;33.20
18408;DHT22;9330;52.210;21.174;2023-07-09T13:06:50;30.60;33.10
18408;DHT22;9330;52.210;21.174;2023-07-09T13:09:20;30.30;32.90
18408;DHT22;9330;52.210;21.174;2023-07-09T13:11:48;30.20;31.40
18408;DHT22;9330;52.210;21.174;2023-07-09T13:14:18;30.00;32.00
18408;DHT22;9330;52.210;21.174;2023-07-09T13:16:46;29.60;30.20
18408;DHT22;9330;52.210;21.174;2023-07-09T13:19:13;29.30;31.50
18408;DHT22;9330;52.210;21.174;2023-07-09T13:21:40;29.20;31.80
18408;DHT22;9330;52.210;21.174;2023-07-09T13:24:13;28.80;29.60
18408;DHT22;9330;52.210;21.174;2023-07-09T13:26:40;28.60;32.70
18408;DHT22;9330;52.210;21.174;2023-07-09T13:29:15;28.30;30.20
18408;DHT22;9330;52.210;21.174;2023-07-09T13:31:43;28.00;31.50
18408;DHT22;9330;52.210;21.174;2023-07-09T13:34:19;28.00;31.40
18408;DHT22;9330;52.210;21.174;2023-07-09T13:36:48;27.80;31.90
18408;DHT22;9330;52.210;21.174;2023-07-09T13:39:16;27.80;32.30
18408;DHT22;9330;52.210;21.174;2023-07-09T13:41:44;27.70;33.50
18408;DHT22;9330;52.210;21.174;2023-07-09T13:44:13;27.60;31.10
18408;DHT22;9330;52.210;21.174;2023-07-09T13:46:41;27.50;31.30
18408;DHT22;9330;52.210;21.174;2023-07-09T13:49:11;27.40;31.70
18408;DHT22;9330;52.210;21.174;2023-07-09T13:51:39;27.40;31.80
18408;DHT22;9330;52.210;21.174;2023-07-09T13:54:14;27.40;31.20
18408;DHT22;9330;52.210;21.174;2023-07-09T13:56:42;27.40;32.60
18408;DHT22;9330;52.210;21.174;2023-07-09T13:59:17;27.40;31.50
18408;DHT22;9330;52.210;21.174;2023-07-09T14:01:45;27.40;30.50
18408;DHT22;9330;52.210;21.174;2023-07-09T14:04:13;27.40;31.30
18408;DHT22;9330;52.210;21.174;2023-07-09T14:06:40;27.50;32.30
18408;DHT22;9330;52.210;21.174;2023-07-09T14:09:09;27.50;32.20
18408;DHT22;9330;52.210;21.174;2023-07-09T14:11:40;27.60;31.80
18408;DHT22;9330;52.210;21.174;2023-07-09T14:14:17;27.60;31.90
18408;DHT22;9330;52.210;21.174;2023-07-09T14:16:44;27.60;30.80
18408;DHT22;9330;52.210;21.174;2023-07-09T14:19:13;27.60;30.10
18408;DHT22;9330;52.210;21.174;2023-07-09T14:21:40;27.60;32.70
18408;DHT22;9330;52.210;21.174;2023-07-09T14:24:17;27.50;33.30
18408;DHT22;9330;52.210;21.174;2023-07-09T14:26:45;27.50;31.80
18408;DHT22;9330;52.210;21.174;2023-07-09T14:29:13;27.50;32.80
18408;DHT22;9330;52.210;21.174;2023-07-09T14:31:41;27.50;31.80
18408;DHT22;9330;52.210;21.174;2023-07-09T14:34:19;27.40;32.60
18408;DHT22;9330;52.210;21.174;2023-07-09T14:36:51;27.40;32.60
18408;DHT22;9330;52.210;21.174;2023-07-09T14:39:20;27.40;33.60
18408;DHT22;9330;52.210;21.174;2023-07-09T14:41:47;27.30;32.60
18408;DHT22;9330;52.210;21.174;2023-07-09T14:44:27;27.30;32.20
18408;DHT22;9330;52.210;21.174;2023-07-09T14:46:58;27.20;33.60
18408;DHT22;9330;52.210;21.174;2023-07-09T14:49:26;27.20;33.30
18408;DHT22;9330;52.210;21.174;2023-07-09T14:51:54;27.00;33.50
18408;DHT22;9330;52.210;21.174;2023-07-09T14:54:26;27.10;32.90
18408;DHT22;9330;52.210;21.174;2023-07-09T14:56:54;27.00;32.40
18408;DHT22;9330;52.210;21.174;2023-07-09T14:59:21;27.00;32.80
18408;DHT22;9330;52.210;21.174;2023-07-09T15:01:50;27.10;31.40
18408;DHT22;9330;52.210;21.174;2023-07-09T15:04:32;27.10;33.20
18408;DHT22;9330;52.210;21.174;2023-07-09T15:06:59;27.20;32.60
18408;DHT22;9330;52.210;21.174;2023-07-09T15:09:27;27.30;33.20
18408;DHT22;9330;52.210;21.174;2023-07-09T15:11:57;27.30;32.70
18408;DHT22;9330;52.210;21.174;2023-07-09T15:14:26;27.20;32.30
18408;DHT22;9330;52.210;21.174;2023-07-09T15:16:54;27.30;32.10
18408;DHT22;9330;52.210;21.174;2023-07-09T15:19:22;27.30;33.10
18408;DHT22;9330;52.210;21.174;2023-07-09T15:21:49;27.50;32.90
18408;DHT22;9330;52.210;21.174;2023-07-09T15:24:21;27.50;32.00
18408;DHT22;9330;52.210;21.174;2023-07-09T15:26:52;27.80;32.60
18408;DHT22;9330;52.210;21.174;2023-07-09T15:29:20;28.10;32.10
18408;DHT22;9330;52.210;21.174;2023-07-09T15:31:47;28.30;33.20
18408;DHT22;9330;52.210;21.174;2023-07-09T15:34:15;28.40;31.50
18408;DHT22;9330;52.210;21.174;2023-07-09T15:36:44;28.50;31.70
18408;DHT22;9330;52.210;21.174;2023-07-09T15:39:13;28.40;31.90
18408;DHT22;9330;52.210;21.174;2023-07-09T15:41:40;28.30;31.90
18408;DHT22;9330;52.210;21.174;2023-07-09T15:44:10;28.10;31.50